Phoenix, Arizona
Traffic Map
Current Weather Conditions
Phoenix, Arizona
Overcast
Overcast
26°
Feels Like: 26°
Wind Chill: 26° Ceiling: 9500
Heat Index: 26° Visibility: 10mi
Dew Point: Wind: 17mph
Humidity: 28% Direction: 190° (S)
Pressure: 29.95in Gusts: 25mph
Raw Report DataKPHX 181851Z 19015G22KT 10SM FEW075 BKN095 OVC110 26/06 A2995 RMK AO2 PK WND 17034/1838 RAB30E39 SLP125 P0000 T02560056
Traffic Incident Summary
Active as of:
Severity:
Category:
InformationThere was an issue retrieving the traffic information for this location. Please try a different location or try again shortly.
Advertisements
At Last! Intellicast now available for iPhone and Android